PT-0138 weather

Piper road
Lisbon District, Portugal

Public forecast

Using degrees Celsius for public forecast. Weather courtesy of forecast.io.

Closest aviation weather report (METAR) to Piper road

Report is more than 6 hours old.

Closest report is Alverca Air Base, 4.3 nm (7.9 km) WSW. Retrieved 2019/12/12 17:00 UTC (7 hours ago):

LPAR 121700Z 29011KT 7000 -RADZ SCT010 BKN025 15/12 Q1024

Closest aviation forecast (TAF) to Piper road

Forecast is more than 12 hours old.

Closest forecast is Alverca Air Base, 4.3 nm (7.9 km) WSW. Retrieved 2019/12/11 18:00 UTC (1 day ago):

TAF LPAR 111703Z 1118/1203 36012KT 9999 FEW020 BECMG 1118/1120 34005KT